createdAt,value
2023-02-28T00:45:50.174Z,0.02
2023-02-28T00:52:43.253Z,0.01
2023-02-28T01:09:35.082Z,0.02
2023-02-28T01:12:32.515Z,0.01
2023-02-28T01:15:16.203Z,0.02
2023-02-28T01:20:00.412Z,0.01
2023-02-28T01:29:47.474Z,0.02
2023-02-28T01:37:31.749Z,0.01
2023-02-28T02:31:33.652Z,0.02
2023-02-28T02:34:03.548Z,0.01
2023-02-28T02:58:39.755Z,0.02
2023-02-28T03:06:02.669Z,0.01
2023-02-28T03:16:03.939Z,0.02
2023-02-28T03:27:41.530Z,0.01
2023-02-28T04:29:19.427Z,0.02
2023-02-28T04:56:02.531Z,0.03
2023-02-28T05:23:31.890Z,0.04
2023-02-28T05:25:56.773Z,0.05
2023-02-28T05:28:07.909Z,0.06
2023-02-28T05:30:04.648Z,0.08
2023-02-28T05:32:49.751Z,0.12
2023-02-28T05:35:20.992Z,0.18
2023-02-28T05:37:38.095Z,0.27
2023-02-28T05:39:40.913Z,0.37
2023-02-28T05:42:31.908Z,0.61
2023-02-28T05:45:09.108Z,0.99
2023-02-28T05:47:32.236Z,1.51
2023-02-28T05:49:41.530Z,2.33
2023-02-28T05:52:38.969Z,3.88
2023-02-28T05:55:22.259Z,5.86
2023-02-28T05:57:51.498Z,9.3
2023-02-28T06:00:06.878Z,12.55
2023-02-28T06:02:08.098Z,16.61
2023-02-28T06:04:57.561Z,24.57
2023-02-28T06:07:33.096Z,33.05
2023-02-28T06:09:54.484Z,43.32
2023-02-28T06:12:01.806Z,55.04
2023-02-28T06:14:57.527Z,69.7
2023-02-28T06:17:39.098Z,82.76
2023-02-28T06:20:06.588Z,96.12
2023-02-28T06:22:20.002Z,111.28
2023-02-28T06:24:19.542Z,124.92
2023-02-28T06:27:07.248Z,146.92
2023-02-28T06:29:40.945Z,169.3
2023-02-28T06:32:00.619Z,192.9
2023-02-28T06:34:05.878Z,210.4
2023-02-28T06:36:59.677Z,234.9
2023-02-28T06:39:39.547Z,259.3
2023-02-28T06:42:05.394Z,284
2023-02-28T06:44:17.136Z,313.8
2023-02-28T06:46:15.039Z,319.8
2023-02-28T06:49:01.014Z,332
2023-02-28T06:51:32.924Z,347.6
2023-02-28T06:53:50.797Z,360
2023-02-28T06:55:54.774Z,375.2
2023-02-28T06:58:46.914Z,393.7
2023-02-28T07:01:24.893Z,407.3
2023-02-28T07:03:49.050Z,420.9
2023-02-28T07:05:59.042Z,434.2
2023-02-28T07:08:57.448Z,497.9
2023-02-28T07:11:41.596Z,514.4
2023-02-28T07:14:11.845Z,510.7
2023-02-28T07:16:28.003Z,512.3
2023-02-28T07:18:30.197Z,523.8
2023-02-28T07:21:20.690Z,544.1
2023-02-28T07:23:57.058Z,558
2023-02-28T07:26:18.747Z,572.9
2023-02-28T07:28:26.996Z,588.8
2023-02-28T07:31:23.628Z,606
2023-02-28T07:34:05.843Z,618.2
2023-02-28T07:36:34.350Z,630.7
2023-02-28T07:38:48.776Z,643.2
2023-02-28T07:40:49.097Z,654.7
2023-02-28T07:43:37.840Z,696.9
2023-02-28T07:46:12.539Z,761.2
2023-02-28T07:48:32.951Z,827.8
2023-02-28T07:50:39.579Z,890.8
2023-02-28T07:53:34.464Z,971.2
2023-02-28T07:56:15.185Z,1013.1
2023-02-28T07:58:41.748Z,1042.5
2023-02-28T08:00:54.596Z,1060.8
2023-02-28T08:02:53.137Z,1076.4
2023-02-28T08:05:39.926Z,1096.6
2023-02-28T08:08:12.817Z,1118
2023-02-28T08:10:31.585Z,1138.2
2023-02-28T08:12:36.258Z,1150.7
2023-02-28T08:15:29.669Z,1173.7
2023-02-28T08:18:09.050Z,1195.8
2023-02-28T08:20:32.868Z,1208.3
2023-02-28T08:22:45.889Z,1223.6
2023-02-28T08:24:40.733Z,1236.8
2023-02-28T08:27:25.763Z,1260.1
2023-02-28T08:29:56.735Z,1272.9
2023-02-28T08:32:27.424Z,1286.4
2023-02-28T08:34:16.717Z,1304.3
2023-02-28T08:37:07.904Z,1325.4
2023-02-28T08:39:45.152Z,1335
2023-02-28T08:42:08.372Z,1351.6
2023-02-28T08:44:17.296Z,1364.4
2023-02-28T08:47:14.702Z,1377.9
2023-02-28T08:49:58.003Z,1381.7
2023-02-28T08:52:27.193Z,1406
2023-02-28T08:54:42.290Z,1426.5
2023-02-28T08:56:43.494Z,1427.8
2023-02-28T08:59:32.895Z,1441.9
2023-02-28T09:02:08.036Z,1450.2
2023-02-28T09:04:29.385Z,1480.9
2023-02-28T09:06:36.629Z,1485.4
2023-02-28T09:09:31.532Z,1504.6
2023-02-28T09:12:13.059Z,1523.8
2023-02-28T09:14:40.515Z,1530.8
2023-02-28T09:16:54.218Z,1545.6
2023-02-28T09:18:53.298Z,1553.9
2023-02-28T09:21:40.938Z,1581.4
2023-02-28T09:24:14.415Z,1603.2
2023-02-28T09:26:35.454Z,1610.8
2023-02-28T09:28:39.299Z,1605.1
2023-02-28T09:31:32.979Z,1618.5
2023-02-28T09:34:12.481Z,1665
2023-02-28T09:36:44.546Z,1679
2023-02-28T09:38:49.802Z,1710
2023-02-28T09:40:47.193Z,984.3
2023-02-28T09:43:32.962Z,1760
2023-02-28T09:46:04.758Z,1775
2023-02-28T09:48:22.423Z,1875
2023-02-28T09:50:26.265Z,2035
2023-02-28T09:53:18.281Z,2149
2023-02-28T09:55:56.240Z,2156
2023-02-28T09:58:20.097Z,1852
2023-02-28T10:00:29.625Z,1520.6
2023-02-28T10:06:11.753Z,1553.2
2023-02-28T10:08:41.839Z,2488
2023-02-28T10:10:57.818Z,1948
2023-02-28T10:12:59.719Z,2048
2023-02-28T10:15:50.115Z,3073
2023-02-28T10:18:26.112Z,3000
2023-02-28T10:20:48.176Z,1761
2023-02-28T10:22:56.358Z,1691
2023-02-28T10:25:52.707Z,1623
2023-02-28T10:28:34.936Z,2960
2023-02-28T10:31:03.132Z,2300
2023-02-28T10:33:17.422Z,2851
2023-02-28T10:35:17.543Z,1832
2023-02-28T10:38:05.824Z,2256
2023-02-28T10:40:40.313Z,2026
2023-02-28T10:43:00.731Z,2890
2023-02-28T10:45:07.088Z,2877
2023-02-28T10:48:01.901Z,1557.7
2023-02-28T10:50:42.447Z,1888
2023-02-28T10:53:08.602Z,3050
2023-02-28T10:55:20.935Z,2546
2023-02-28T10:57:19.524Z,1847
2023-02-28T11:00:06.359Z,2117
2023-02-28T11:02:39.073Z,2480
2023-02-28T11:04:57.878Z,1749
2023-02-28T11:07:02.449Z,2511
2023-02-28T11:09:55.261Z,2941
2023-02-28T11:12:37.806Z,2508
2023-02-28T11:14:59.076Z,2263
2023-02-28T11:17:09.767Z,2869
2023-02-28T11:19:06.860Z,2021
2023-02-28T11:21:51.747Z,2999
2023-02-28T11:24:22.740Z,3032
2023-02-28T11:26:39.472Z,1683
2023-02-28T11:28:42.424Z,2555
2023-02-28T11:31:33.774Z,2755
2023-02-28T11:34:10.862Z,2407
2023-02-28T11:36:34.050Z,2112
2023-02-28T11:38:43.034Z,1362.5
2023-02-28T11:41:41.454Z,1989
2023-02-28T11:44:23.313Z,1612.1
2023-02-28T11:46:52.712Z,1304.6
2023-02-28T11:49:07.597Z,1561.6
2023-02-28T11:51:08.757Z,2090
2023-02-28T11:53:58.269Z,2732
2023-02-28T11:56:33.514Z,1985
2023-02-28T11:58:54.789Z,2441
2023-02-28T12:01:02.084Z,2732
2023-02-28T12:03:57.608Z,2816
2023-02-28T12:06:39.100Z,2913
2023-02-28T12:09:06.755Z,2945
2023-02-28T12:11:20.251Z,1547.5
2023-02-28T12:13:19.600Z,2713
2023-02-28T12:16:07.492Z,1238.7
2023-02-28T12:18:41.227Z,3022
2023-02-28T12:21:00.764Z,2874
2023-02-28T12:23:06.380Z,2887
2023-02-28T12:26:00.201Z,2928
2023-02-28T12:28:39.927Z,2892
2023-02-28T12:31:05.503Z,2853
2023-02-28T12:33:17.141Z,2753
2023-02-28T12:35:14.399Z,2842
2023-02-28T12:38:00.210Z,2937
2023-02-28T12:40:32.078Z,3052
2023-02-28T12:42:49.905Z,2974
2023-02-28T12:44:53.962Z,3009
2023-02-28T12:47:45.845Z,2908
2023-02-28T12:50:23.970Z,2872
2023-02-28T12:52:48.094Z,2552
2023-02-28T12:54:58.112Z,2470
2023-02-28T12:57:56.471Z,2463
2023-02-28T13:00:40.694Z,2584
2023-02-28T13:03:10.666Z,2537
2023-02-28T13:05:26.784Z,6295
2023-02-28T13:07:28.798Z,4729
2023-02-28T13:10:19.105Z,2486
2023-02-28T13:12:55.566Z,2467
2023-02-28T13:15:17.909Z,2547
2023-02-28T13:17:25.966Z,2599
2023-02-28T13:20:22.650Z,2460
2023-02-28T13:23:05.127Z,2482
2023-02-28T13:25:33.515Z,2549
2023-02-28T13:27:47.341Z,2622
2023-02-28T13:29:47.715Z,2679
2023-02-28T13:32:36.220Z,2392
2023-02-28T13:35:10.612Z,2445
2023-02-28T13:37:31.312Z,2474
2023-02-28T13:39:37.816Z,2430
2023-02-28T13:42:32.521Z,2446
2023-02-28T13:45:13.419Z,2497
2023-02-28T13:47:40.176Z,2556
2023-02-28T13:49:52.863Z,2695
2023-02-28T13:51:51.894Z,2705
2023-02-28T13:54:38.384Z,2400
2023-02-28T13:56:52.233Z,4011
2023-02-28T13:58:52.324Z,5818
2023-02-28T14:01:40.046Z,4103
2023-02-28T14:04:14.001Z,2257
2023-02-28T14:06:33.945Z,2222
2023-02-28T14:08:39.648Z,2289
2023-02-28T14:11:34.033Z,2155
2023-02-28T14:14:14.161Z,2060
2023-02-28T14:16:40.194Z,2052
2023-02-28T14:18:52.145Z,1986
2023-02-28T14:20:49.850Z,2231
2023-02-28T14:23:36.085Z,1949
2023-02-28T14:26:08.210Z,3619
2023-02-28T14:28:26.421Z,6448
2023-02-28T14:30:30.811Z,2688
2023-02-28T14:33:22.878Z,2094
2023-02-28T14:36:01.356Z,5158
2023-02-28T14:38:25.606Z,9610
2023-02-28T14:40:35.709Z,15825
2023-02-28T14:43:34.337Z,3464
2023-02-28T14:46:18.822Z,2377
2023-02-28T14:48:49.218Z,1950
2023-02-28T14:51:05.459Z,2022
2023-02-28T14:53:07.787Z,1909
2023-02-28T14:55:58.396Z,1891
2023-02-28T14:58:34.865Z,2560
2023-02-28T15:00:57.400Z,1901
2023-02-28T15:03:05.847Z,2076
2023-02-28T15:06:02.516Z,15667
2023-02-28T15:08:45.320Z,7365
2023-02-28T15:11:13.654Z,1765
2023-02-28T15:13:28.213Z,4190
2023-02-28T15:15:31.993Z,4043
2023-02-28T15:18:17.819Z,1525.1
2023-02-28T15:20:52.590Z,1504.6
2023-02-28T15:23:13.272Z,1492.4
2023-02-28T15:25:19.998Z,1470.7
2023-02-28T15:28:14.993Z,1401.6
2023-02-28T15:30:55.881Z,1352.3
2023-02-28T15:33:22.911Z,1312
2023-02-28T15:35:35.781Z,1270
2023-02-28T15:37:34.685Z,1229.4
2023-02-28T15:40:21.697Z,1166
2023-02-28T15:42:54.713Z,1085.1
2023-02-28T15:45:13.714Z,1048
2023-02-28T15:47:18.618Z,1004.8
2023-02-28T15:50:11.937Z,965.4
2023-02-28T15:52:51.065Z,934.7
2023-02-28T15:55:16.170Z,901.1
2023-02-28T15:57:27.410Z,876.1
2023-02-28T15:59:24.417Z,844.8
2023-02-28T16:02:09.363Z,779.8
2023-02-28T16:04:40.842Z,712.3
2023-02-28T16:06:57.846Z,661.4
2023-02-28T16:09:00.893Z,628.3
2023-02-28T16:11:52.462Z,581.9
2023-02-28T16:14:29.779Z,546
2023-02-28T16:16:53.151Z,513.4
2023-02-28T16:19:02.479Z,478.2
2023-02-28T16:22:00.033Z,437.9
2023-02-28T16:24:43.489Z,400.1
2023-02-28T16:27:12.851Z,366.8
2023-02-28T16:29:28.346Z,335
2023-02-28T16:31:30.024Z,310.3
2023-02-28T16:34:19.299Z,278.8
2023-02-28T16:36:55.045Z,254.3
2023-02-28T16:39:16.530Z,236.7
2023-02-28T16:41:23.938Z,221.3
2023-02-28T16:44:19.925Z,196.3
2023-02-28T16:47:01.802Z,174.4
2023-02-28T16:49:29.408Z,154.36
2023-02-28T16:51:42.853Z,135.68
2023-02-28T16:53:42.052Z,120.52
2023-02-28T16:56:30.159Z,99.64
2023-02-28T16:59:03.519Z,82.88
2023-02-28T17:01:23.416Z,67.56
2023-02-28T17:03:32.558Z,57.22
2023-02-28T17:06:23.018Z,43.64
2023-02-28T17:09:02.909Z,33.72
2023-02-28T17:11:29.015Z,25.43
2023-02-28T17:13:40.488Z,18.8
2023-02-28T17:15:38.516Z,14.44
2023-02-28T17:18:24.946Z,9.37
2023-02-28T17:20:56.900Z,6.3
2023-02-28T17:23:14.734Z,4.53
2023-02-28T17:25:18.785Z,2.96
2023-02-28T17:28:10.984Z,1.74
2023-02-28T17:30:48.916Z,1.12
2023-02-28T17:33:12.910Z,0.75
2023-02-28T17:35:23.024Z,0.56
2023-02-28T17:38:21.140Z,0.37
2023-02-28T17:41:05.455Z,0.25
2023-02-28T17:43:35.735Z,0.19
2023-02-28T17:45:51.678Z,0.14
2023-02-28T17:47:53.636Z,0.13
2023-02-28T17:50:44.088Z,0.07
2023-02-28T17:55:42.627Z,0.05
2023-02-28T18:00:47.480Z,0.06
2023-02-28T18:03:29.813Z,0.05
2023-02-28T18:05:58.333Z,0.06
2023-02-28T18:08:12.760Z,0.05
2023-02-28T18:10:13.093Z,0.06
2023-02-28T18:13:01.747Z,0.05
2023-02-28T18:17:56.697Z,0.03
2023-02-28T18:20:03.235Z,0.04
2023-02-28T18:22:57.918Z,0.03
2023-02-28T18:25:38.531Z,0.05
2023-02-28T18:30:17.403Z,0.04
2023-02-28T18:32:15.895Z,0.02
2023-02-28T18:35:02.423Z,0.03
2023-02-28T18:37:34.734Z,0.02
2023-02-28T18:39:53.371Z,0.03
2023-02-28T18:49:55.915Z,0.02
2023-02-28T18:52:05.021Z,0.03
2023-02-28T18:54:01.774Z,0.04
2023-02-28T18:56:46.735Z,0.02
2023-02-28T19:01:34.629Z,0.03
2023-02-28T19:06:28.721Z,0.02
2023-02-28T19:13:37.911Z,0.03
2023-02-28T19:16:35.435Z,0.02
2023-02-28T19:33:49.852Z,0.03
2023-02-28T19:38:52.433Z,0.02
2023-02-28T19:41:34.143Z,0.03
2023-02-28T19:44:01.577Z,0.02
2023-02-28T19:58:01.185Z,0.04
2023-02-28T20:00:55.097Z,0.03
2023-02-28T20:03:34.846Z,0.02
2023-02-28T21:17:25.224Z,0.03
2023-02-28T21:20:05.890Z,0.04
2023-02-28T21:22:32.407Z,0.03
2023-02-28T21:24:44.809Z,0.04
2023-02-28T21:29:30.087Z,0.02
2023-02-28T22:23:21.126Z,0.01
2023-02-28T22:30:25.007Z,0.02
2023-02-28T22:33:20.594Z,0.01
2023-02-28T22:36:01.955Z,0.02
2023-02-28T22:38:29.462Z,0.01
2023-02-28T22:45:29.872Z,0.02
2023-02-28T23:30:00.894Z,0.01
2023-02-28T23:52:23.659Z,0.02
2023-02-28T23:54:51.881Z,0.01
2023-02-28T23:59:06.205Z,0.02
